createdAt,value
2023-04-04T00:00:05.890Z,.61
2023-04-04T00:00:33.930Z,.61
2023-04-04T00:01:06.140Z,.61
2023-04-04T00:01:37.903Z,.61
2023-04-04T00:01:53.975Z,.61
2023-04-04T00:02:37.996Z,.61
2023-04-04T00:03:10.018Z,.61
2023-04-04T00:03:42.007Z,.61
2023-04-04T00:04:13.599Z,.61
2023-04-04T00:04:45.765Z,.61
2023-04-04T00:05:18.035Z,.61
2023-04-04T00:05:49.576Z,.61
2023-04-04T00:06:21.657Z,.61
2023-04-04T00:06:53.631Z,.61
2023-04-04T00:07:25.624Z,.61
2023-04-04T00:07:57.793Z,.61
2023-04-04T00:08:29.712Z,.50
2023-04-04T00:09:01.580Z,.50
2023-04-04T00:09:33.564Z,.50
2023-04-04T00:10:05.943Z,.50
2023-04-04T00:10:37.506Z,.38
2023-04-04T00:11:09.459Z,.38
2023-04-04T00:11:41.531Z,.38
2023-04-04T00:12:13.442Z,.38
2023-04-04T00:12:45.391Z,.38
2023-04-04T00:13:17.378Z,.38
2023-04-04T00:13:49.277Z,.38
2023-04-04T00:14:21.391Z,.38
2023-04-04T00:14:53.244Z,.38
2023-04-04T00:15:11.127Z,.38
2023-04-04T00:15:41.209Z,.27
2023-04-04T00:16:25.380Z,.27
2023-04-04T00:16:57.611Z,.27
2023-04-04T00:17:29.206Z,.27
2023-04-04T00:18:01.358Z,.27
2023-04-04T00:18:33.235Z,.27
2023-04-04T00:19:05.380Z,.27
2023-04-04T00:19:37.241Z,.27
2023-04-04T00:19:53.261Z,.27
2023-04-04T00:20:37.420Z,.22
2023-04-04T00:21:09.252Z,.22
2023-04-04T00:21:41.211Z,.22
2023-04-04T00:22:12.953Z,.11
2023-04-04T00:22:45.013Z,.11
2023-04-04T00:23:16.953Z,.11
2023-04-04T00:23:49.029Z,.11
2023-04-04T00:24:20.971Z,0
2023-04-04T00:24:52.845Z,0
2023-04-04T00:25:25.370Z,0
2023-04-04T00:25:57.067Z,0
2023-04-04T00:26:28.689Z,0
2023-04-04T00:27:01.012Z,0
2023-04-04T00:27:32.869Z,0
2023-04-04T00:28:04.955Z,0
2023-04-04T00:28:37.181Z,0
2023-04-04T00:28:52.856Z,0
2023-04-04T00:29:24.706Z,0
2023-04-04T00:29:40.797Z,-.11
2023-04-04T00:30:13.451Z,-.11
2023-04-04T00:30:44.643Z,-.11
2023-04-04T00:31:16.547Z,-.11
2023-04-04T00:31:48.716Z,-.11
2023-04-04T00:32:20.598Z,-.22
2023-04-04T00:32:52.520Z,-.22
2023-04-04T00:33:09.119Z,-.22
2023-04-04T00:33:40.455Z,-.22
2023-04-04T00:34:24.713Z,-.22
2023-04-04T00:34:56.477Z,-.22
2023-04-04T00:35:29.278Z,-.22
2023-04-04T00:36:00.625Z,-.22
2023-04-04T00:36:32.500Z,-.27
2023-04-04T00:37:04.577Z,-.27
2023-04-04T00:37:36.522Z,-.27
2023-04-04T00:37:52.469Z,-.27
2023-04-04T00:38:36.642Z,-.27
2023-04-04T00:39:08.440Z,-.27
2023-04-04T00:39:40.230Z,-.27
2023-04-04T00:40:12.457Z,-.27
2023-04-04T00:40:44.330Z,-.38
2023-04-04T00:41:16.349Z,-.38
2023-04-04T00:41:48.153Z,-.50
2023-04-04T00:42:20.121Z,-.50
2023-04-04T00:42:52.161Z,-.50
2023-04-04T00:43:24.708Z,-.50
2023-04-04T00:43:56.089Z,-.50
2023-04-04T00:44:28.256Z,-.50
2023-04-04T00:45:00.255Z,-.50
2023-04-04T00:45:32.514Z,-.50
2023-04-04T00:46:04.379Z,-.50
2023-04-04T00:46:36.016Z,-.50
2023-04-04T00:47:07.942Z,-.61
2023-04-04T00:47:40.129Z,-.61
2023-04-04T00:48:11.821Z,-.61
2023-04-04T00:48:28.014Z,-.61
2023-04-04T00:49:11.838Z,-.72
2023-04-04T00:49:43.847Z,-.72
2023-04-04T00:50:16.321Z,-.72
2023-04-04T00:50:47.739Z,-.72
2023-04-04T00:51:19.824Z,-.72
2023-04-04T00:51:51.818Z,-.72
2023-04-04T00:52:23.956Z,-.72
2023-04-04T00:52:55.738Z,-.72
2023-04-04T00:53:11.833Z,-.72
2023-04-04T00:53:43.494Z,-.72
2023-04-04T00:54:27.828Z,-.72
2023-04-04T00:54:59.808Z,-.72
2023-04-04T00:55:31.716Z,-.77
2023-04-04T00:56:04.003Z,-.77
2023-04-04T00:56:35.754Z,-.77
2023-04-04T00:57:07.585Z,-.77
2023-04-04T00:57:39.698Z,-.77
2023-04-04T00:58:11.469Z,-.77
2023-04-04T00:58:43.461Z,-.77
2023-04-04T00:59:15.537Z,-.88
2023-04-04T00:59:47.257Z,-.88
2023-04-04T01:00:20.914Z,-1.00
2023-04-04T01:00:51.734Z,-1.00
2023-04-04T01:01:24.228Z,-1.00
2023-04-04T01:01:39.613Z,-1.00
2023-04-04T01:02:11.344Z,-1.00
2023-04-04T01:02:55.501Z,-1.11
2023-04-04T01:03:27.365Z,-1.11
2023-04-04T01:03:59.184Z,-1.11
2023-04-04T01:04:31.231Z,-1.11
2023-04-04T01:05:05.341Z,-1.11
2023-04-04T01:05:35.188Z,-1.11
2023-04-04T01:06:07.130Z,-1.11
2023-04-04T01:06:23.243Z,-1.11
2023-04-04T01:07:07.140Z,-1.11
2023-04-04T01:07:39.326Z,-1.11
2023-04-04T01:08:10.982Z,-1.22
2023-04-04T01:08:42.990Z,-1.22
2023-04-04T01:09:15.279Z,-1.22
2023-04-04T01:09:47.075Z,-1.22
2023-04-04T01:10:19.206Z,-1.22
2023-04-04T01:10:51.043Z,-1.22
2023-04-04T01:11:07.136Z,-1.22
2023-04-04T01:11:38.927Z,-1.22
2023-04-04T01:12:22.954Z,-1.22
2023-04-04T01:12:54.822Z,-1.27
2023-04-04T01:13:10.889Z,-1.27
2023-04-04T01:13:42.951Z,-1.27
2023-04-04T01:14:26.911Z,-1.27
2023-04-04T01:14:58.803Z,-1.27
2023-04-04T01:15:31.248Z,-1.27
2023-04-04T01:16:03.221Z,-1.27
2023-04-04T01:16:35.040Z,-1.27
2023-04-04T01:17:07.041Z,-1.27
2023-04-04T01:17:38.733Z,-1.27
2023-04-04T01:18:10.701Z,-1.38
2023-04-04T01:18:42.655Z,-1.38
2023-04-04T01:19:14.741Z,-1.38
2023-04-04T01:19:46.654Z,-1.50
2023-04-04T01:20:18.838Z,-1.50
2023-04-04T01:20:50.670Z,-1.50
2023-04-04T01:21:22.634Z,-1.50
2023-04-04T01:21:54.551Z,-1.50
2023-04-04T01:22:26.685Z,-1.50
2023-04-04T01:22:58.587Z,-1.50
2023-04-04T01:23:30.549Z,-1.50
2023-04-04T01:24:02.871Z,-1.50
2023-04-04T01:24:34.432Z,-1.50
2023-04-04T01:25:06.992Z,-1.50
2023-04-04T01:25:38.453Z,-1.50
2023-04-04T01:26:10.462Z,-1.50
2023-04-04T01:26:42.855Z,-1.50
2023-04-04T01:27:14.342Z,-1.50
2023-04-04T01:27:46.590Z,-1.50
2023-04-04T01:28:18.231Z,-1.61
2023-04-04T01:28:50.277Z,-1.61
2023-04-04T01:29:22.348Z,-1.61
2023-04-04T01:29:54.336Z,-1.61
2023-04-04T01:30:26.654Z,-1.61
2023-04-04T01:30:58.382Z,-1.61
2023-04-04T01:31:30.394Z,-1.61
2023-04-04T01:32:03.863Z,-1.61
2023-04-04T01:32:34.040Z,-1.61
2023-04-04T01:32:50.216Z,-1.72
2023-04-04T01:33:34.012Z,-1.72
2023-04-04T01:34:06.281Z,-1.72
2023-04-04T01:34:37.875Z,-1.72
2023-04-04T01:35:10.215Z,-1.72
2023-04-04T01:35:41.983Z,-1.72
2023-04-04T01:36:15.136Z,-1.72
2023-04-04T01:36:45.844Z,-1.72
2023-04-04T01:37:17.792Z,-1.72
2023-04-04T01:37:49.803Z,-1.72
2023-04-04T01:38:21.955Z,-1.72
2023-04-04T01:38:53.638Z,-1.72
2023-04-04T01:39:25.709Z,-1.72
2023-04-04T01:39:57.882Z,-1.72
2023-04-04T01:40:30.053Z,-1.72
2023-04-04T01:41:01.778Z,-1.72
2023-04-04T01:41:33.641Z,-1.72
2023-04-04T01:41:49.776Z,-1.72
2023-04-04T01:42:21.740Z,-1.72
2023-04-04T01:42:37.828Z,-1.72
2023-04-04T01:43:09.941Z,-1.72
2023-04-04T01:43:41.491Z,-1.72
2023-04-04T01:44:13.606Z,-1.72
2023-04-04T01:44:45.589Z,-1.72
2023-04-04T01:45:18.862Z,-1.72
2023-04-04T01:45:49.633Z,-1.72
2023-04-04T01:46:05.712Z,-1.77
2023-04-04T01:46:37.581Z,-1.77
2023-04-04T01:47:21.678Z,-1.77
2023-04-04T01:47:53.345Z,-1.77
2023-04-04T01:48:25.629Z,-1.77
2023-04-04T01:48:57.533Z,-1.77
2023-04-04T01:49:29.637Z,-1.88
2023-04-04T01:50:01.768Z,-1.88
2023-04-04T01:50:33.408Z,-1.88
2023-04-04T01:50:49.795Z,-1.88
2023-04-04T01:51:33.259Z,-1.88
2023-04-04T01:52:05.280Z,-1.88
2023-04-04T01:52:37.252Z,-1.88
2023-04-04T01:53:09.306Z,-1.88
2023-04-04T01:53:41.219Z,-1.88
2023-04-04T01:54:13.149Z,-1.88
2023-04-04T01:54:45.126Z,-2.00
2023-04-04T01:55:17.338Z,-2.00
2023-04-04T01:55:49.155Z,-2.00
2023-04-04T01:56:21.196Z,-2.00
2023-04-04T01:56:52.964Z,-2.00
2023-04-04T01:57:25.033Z,-2.00
2023-04-04T01:57:57.132Z,-2.00
2023-04-04T01:58:29.095Z,-2.00
2023-04-04T01:59:01.113Z,-2.11
2023-04-04T01:59:32.879Z,-2.11
2023-04-04T02:00:06.575Z,-2.11
2023-04-04T02:00:37.103Z,-2.11
2023-04-04T02:01:08.885Z,-2.11
2023-04-04T02:01:41.132Z,-2.11
2023-04-04T02:02:12.916Z,-2.11
2023-04-04T02:02:44.865Z,-2.11
2023-04-04T02:03:16.732Z,-2.11
2023-04-04T02:03:49.028Z,-2.11
2023-04-04T02:04:20.885Z,-2.11
2023-04-04T02:04:52.831Z,-2.00
2023-04-04T02:05:24.907Z,-2.00
2023-04-04T02:05:56.646Z,-2.00
2023-04-04T02:06:28.626Z,-1.88
2023-04-04T02:07:00.835Z,-1.88
2023-04-04T02:07:32.454Z,-1.88
2023-04-04T02:07:48.660Z,-1.88
2023-04-04T02:08:32.553Z,-2.00
2023-04-04T02:09:05.037Z,-2.00
2023-04-04T02:09:36.976Z,-2.00
2023-04-04T02:10:08.684Z,-2.00
2023-04-04T02:10:40.650Z,-2.00
2023-04-04T02:11:12.499Z,-2.11
2023-04-04T02:11:44.442Z,-2.11
2023-04-04T02:12:16.340Z,-2.11
2023-04-04T02:12:48.623Z,-2.11
2023-04-04T02:13:20.517Z,-2.11
2023-04-04T02:13:52.382Z,-2.11
2023-04-04T02:14:24.273Z,-2.22
2023-04-04T02:14:56.291Z,-2.22
2023-04-04T02:15:28.825Z,-2.22
2023-04-04T02:16:00.426Z,-2.22
2023-04-04T02:16:32.184Z,-2.22
2023-04-04T02:16:48.379Z,-2.22
2023-04-04T02:17:20.317Z,-2.22
2023-04-04T02:17:36.433Z,-2.22
2023-04-04T02:18:08.387Z,-2.22
2023-04-04T02:18:40.308Z,-2.22
2023-04-04T02:19:12.191Z,-2.22
2023-04-04T02:19:44.102Z,-2.22
2023-04-04T02:20:16.542Z,-2.22
2023-04-04T02:20:47.962Z,-2.22
2023-04-04T02:21:04.540Z,-2.22
2023-04-04T02:21:35.948Z,-2.22
2023-04-04T02:22:20.046Z,-2.22
2023-04-04T02:22:52.113Z,-2.22
2023-04-04T02:23:23.789Z,-2.22
2023-04-04T02:23:56.091Z,-2.22
2023-04-04T02:24:28.058Z,-2.22
2023-04-04T02:24:59.910Z,-2.22
2023-04-04T02:25:31.979Z,-2.22
2023-04-04T02:25:48.028Z,-2.11
2023-04-04T02:26:31.814Z,-2.11
2023-04-04T02:27:04.184Z,-2.11
2023-04-04T02:27:35.894Z,-2.11
2023-04-04T02:28:07.800Z,-2.22
2023-04-04T02:28:39.879Z,-2.22
2023-04-04T02:29:11.627Z,-2.22
2023-04-04T02:29:43.738Z,-2.22
2023-04-04T02:30:17.147Z,-2.22
2023-04-04T02:30:47.735Z,-2.22
2023-04-04T02:31:19.772Z,-2.22
2023-04-04T02:31:51.936Z,-2.22
2023-04-04T02:32:23.563Z,-2.22
2023-04-04T02:32:55.540Z,-2.22
2023-04-04T02:33:27.654Z,-2.22
2023-04-04T02:33:59.607Z,-2.22
2023-04-04T02:34:31.463Z,-2.22
2023-04-04T02:34:47.552Z,-2.22
2023-04-04T02:35:19.730Z,-2.22
2023-04-04T02:35:35.533Z,-2.22
2023-04-04T02:36:08.460Z,-2.22
2023-04-04T02:36:39.992Z,-2.22
2023-04-04T02:37:11.407Z,-2.22
2023-04-04T02:37:43.319Z,-2.22
2023-04-04T02:38:15.349Z,-2.22
2023-04-04T02:38:47.426Z,-2.22
2023-04-04T02:39:03.623Z,-2.22
2023-04-04T02:39:35.297Z,-2.22
2023-04-04T02:40:19.663Z,-2.22
2023-04-04T02:40:51.571Z,-2.22
2023-04-04T02:41:23.192Z,-2.22
2023-04-04T02:41:55.240Z,-2.22
2023-04-04T02:42:27.337Z,-2.22
2023-04-04T02:42:59.305Z,-2.22
2023-04-04T02:43:31.378Z,-2.27
2023-04-04T02:43:47.266Z,-2.27
2023-04-04T02:44:31.007Z,-2.27
2023-04-04T02:45:05.898Z,-2.27
2023-04-04T02:45:35.108Z,-2.27
2023-04-04T02:46:20.673Z,-2.27
2023-04-04T02:46:38.997Z,-2.27
2023-04-04T02:47:11.230Z,-2.38
2023-04-04T02:47:43.185Z,-2.38
2023-04-04T02:48:14.691Z,-2.38
2023-04-04T02:48:47.012Z,-2.38
2023-04-04T02:49:19.060Z,-2.38
2023-04-04T02:49:50.884Z,-2.38
2023-04-04T02:50:23.056Z,-2.38
2023-04-04T02:50:54.824Z,-2.38
2023-04-04T02:51:26.785Z,-2.38
2023-04-04T02:51:58.853Z,-2.38
2023-04-04T02:52:30.675Z,-2.50
2023-04-04T02:53:02.766Z,-2.50
2023-04-04T02:53:34.650Z,-2.50
2023-04-04T02:54:06.889Z,-2.50
2023-04-04T02:54:38.553Z,-2.50
2023-04-04T02:55:11.018Z,-2.50
2023-04-04T02:55:42.690Z,-2.50
2023-04-04T02:56:14.680Z,-2.50
2023-04-04T02:56:46.520Z,-2.50
2023-04-04T02:57:02.814Z,-2.50
2023-04-04T02:57:34.436Z,-2.50
2023-04-04T02:58:18.517Z,-2.61
2023-04-04T02:58:34.713Z,-2.61
2023-04-04T02:59:18.500Z,-2.61
2023-04-04T02:59:34.642Z,-2.61
2023-04-04T03:00:19.664Z,-2.61
2023-04-04T03:00:50.548Z,-2.61
2023-04-04T03:01:22.479Z,-2.50
2023-04-04T03:01:54.343Z,-2.50
2023-04-04T03:02:26.673Z,-2.50
2023-04-04T03:02:58.681Z,-2.38
2023-04-04T03:03:30.596Z,-2.38
2023-04-04T03:03:46.777Z,-2.38
2023-04-04T03:04:30.172Z,-2.38
2023-04-04T03:05:02.651Z,-2.38
2023-04-04T03:05:34.283Z,-2.38
2023-04-04T03:06:06.259Z,-2.38
2023-04-04T03:06:38.415Z,-2.50
2023-04-04T03:07:10.231Z,-2.50
2023-04-04T03:07:42.115Z,-2.50
2023-04-04T03:08:13.964Z,-2.50
2023-04-04T03:08:46.120Z,-2.50
2023-04-04T03:09:02.191Z,-2.50
2023-04-04T03:09:46.453Z,-2.50
2023-04-04T03:10:18.265Z,-2.61
2023-04-04T03:10:49.970Z,-2.61
2023-04-04T03:11:22.031Z,-2.61
2023-04-04T03:11:53.885Z,-2.61
2023-04-04T03:12:26.180Z,-2.61
2023-04-04T03:12:57.769Z,-2.61
2023-04-04T03:13:29.903Z,-2.61
2023-04-04T03:14:02.214Z,-2.61
2023-04-04T03:14:33.961Z,-2.61
2023-04-04T03:15:08.280Z,-2.50
2023-04-04T03:15:37.965Z,-2.50
2023-04-04T03:16:10.029Z,-2.50
2023-04-04T03:16:41.887Z,-2.50
2023-04-04T03:17:13.568Z,-2.50
2023-04-04T03:17:45.687Z,-2.50
2023-04-04T03:18:02.352Z,-2.50
2023-04-04T03:18:33.506Z,-2.50
2023-04-04T03:19:17.834Z,-2.50
2023-04-04T03:19:49.596Z,-2.50
2023-04-04T03:20:21.805Z,-2.50
2023-04-04T03:20:53.630Z,-2.50
2023-04-04T03:21:25.774Z,-2.50
2023-04-04T03:21:57.515Z,-2.50
2023-04-04T03:22:29.607Z,-2.50
2023-04-04T03:22:45.766Z,-2.50
2023-04-04T03:23:29.656Z,-2.50
2023-04-04T03:24:01.793Z,-2.50
2023-04-04T03:24:33.240Z,-2.50
2023-04-04T03:25:05.838Z,-2.50
2023-04-04T03:25:37.411Z,-2.50
2023-04-04T03:26:09.404Z,-2.50
2023-04-04T03:26:41.351Z,-2.50
2023-04-04T03:27:13.353Z,-2.50
2023-04-04T03:27:45.315Z,-2.38
2023-04-04T03:28:17.577Z,-2.38
2023-04-04T03:28:49.341Z,-2.38
2023-04-04T03:29:21.176Z,-2.38
2023-04-04T03:29:53.273Z,-2.38
2023-04-04T03:30:25.734Z,-2.27
2023-04-04T03:30:57.023Z,-2.27
2023-04-04T03:31:29.301Z,-2.27
2023-04-04T03:32:01.345Z,-2.27
2023-04-04T03:32:33.122Z,-2.27
2023-04-04T03:33:05.101Z,-2.27
2023-04-04T03:33:37.075Z,-2.27
2023-04-04T03:34:08.999Z,-2.22
2023-04-04T03:34:41.121Z,-2.22
2023-04-04T03:35:13.115Z,-2.22
2023-04-04T03:35:45.007Z,-2.22
2023-04-04T03:36:01.411Z,-2.22
2023-04-04T03:36:32.802Z,-2.22
2023-04-04T03:37:17.171Z,-2.22
2023-04-04T03:37:48.924Z,-2.22
2023-04-04T03:38:21.015Z,-2.22
2023-04-04T03:38:52.805Z,-2.22
2023-04-04T03:39:24.909Z,-2.22
2023-04-04T03:39:56.779Z,-2.22
2023-04-04T03:40:29.044Z,-2.22
2023-04-04T03:41:00.813Z,-2.22
2023-04-04T03:41:32.745Z,-2.11
2023-04-04T03:42:04.802Z,-2.11
2023-04-04T03:42:36.648Z,-2.11
2023-04-04T03:43:08.820Z,-2.11
2023-04-04T03:43:40.976Z,-2.11
2023-04-04T03:44:12.478Z,-2.11
2023-04-04T03:44:44.503Z,-2.11
2023-04-04T03:45:01.640Z,-2.11
2023-04-04T03:45:44.686Z,-2.11
2023-04-04T03:46:16.789Z,-2.11
2023-04-04T03:46:48.318Z,-2.11
2023-04-04T03:47:20.557Z,-2.11
2023-04-04T03:47:52.579Z,-2.11
2023-04-04T03:48:24.477Z,-2.11
2023-04-04T03:48:56.365Z,-2.11
2023-04-04T03:49:28.330Z,-2.11
2023-04-04T03:50:00.624Z,-2.11
2023-04-04T03:50:32.377Z,-2.11
2023-04-04T03:51:04.360Z,-2.11
2023-04-04T03:51:36.327Z,-2.11
2023-04-04T03:52:08.394Z,-2.11
2023-04-04T03:52:40.452Z,-2.11
2023-04-04T03:53:12.009Z,-2.11
2023-04-04T03:53:44.117Z,-2.11
2023-04-04T03:54:00.350Z,-2.11
2023-04-04T03:54:32.031Z,-2.11
2023-04-04T03:55:16.594Z,-2.00
2023-04-04T03:55:48.089Z,-2.00
2023-04-04T03:56:20.267Z,-1.88
2023-04-04T03:56:52.093Z,-1.88
2023-04-04T03:57:24.181Z,-1.88
2023-04-04T03:57:56.194Z,-1.88
2023-04-04T03:58:12.190Z,-1.88
2023-04-04T03:58:44.172Z,-1.88
2023-04-04T03:59:00.212Z,-1.88
2023-04-04T03:59:32.138Z,-1.88
2023-04-04T04:00:06.248Z,-1.88
2023-04-04T04:00:36.076Z,-1.88
2023-04-04T04:01:08.137Z,-1.88
2023-04-04T04:01:40.073Z,-1.88
2023-04-04T04:02:12.302Z,-1.88
2023-04-04T04:02:43.962Z,-1.88
2023-04-04T04:03:00.125Z,-1.88
2023-04-04T04:03:43.893Z,-2.00
2023-04-04T04:04:15.961Z,-2.00
2023-04-04T04:04:47.761Z,-2.00
2023-04-04T04:05:20.039Z,-2.00
2023-04-04T04:05:51.695Z,-2.00
2023-04-04T04:06:23.653Z,-2.00
2023-04-04T04:06:55.585Z,-2.00
2023-04-04T04:07:27.543Z,-2.11
2023-04-04T04:07:59.561Z,-2.11
2023-04-04T04:08:31.645Z,-2.11
2023-04-04T04:09:03.665Z,-2.11
2023-04-04T04:09:35.525Z,-2.11
2023-04-04T04:10:07.845Z,-2.11
2023-04-04T04:10:39.773Z,-2.11
2023-04-04T04:11:11.407Z,-2.11
2023-04-04T04:11:43.397Z,-2.11
2023-04-04T04:11:59.649Z,-2.11
2023-04-04T04:12:31.296Z,-2.11
2023-04-04T04:13:15.475Z,-2.11
2023-04-04T04:13:47.332Z,-2.00
2023-04-04T04:14:19.459Z,-2.00
2023-04-04T04:14:51.413Z,-2.00
2023-04-04T04:15:23.754Z,-2.00
2023-04-04T04:15:55.256Z,-2.00
2023-04-04T04:16:27.606Z,-2.00
2023-04-04T04:16:43.484Z,-2.00
2023-04-04T04:17:27.314Z,-2.00
2023-04-04T04:18:00.219Z,-2.00
2023-04-04T04:18:31.128Z,-2.00
2023-04-04T04:19:03.510Z,-2.00
2023-04-04T04:19:35.203Z,-2.00
2023-04-04T04:20:07.457Z,-2.00
2023-04-04T04:20:39.318Z,-2.00
2023-04-04T04:21:11.025Z,-2.00
2023-04-04T04:21:42.996Z,-2.00
2023-04-04T04:22:15.062Z,-2.00
2023-04-04T04:22:46.791Z,-2.00
2023-04-04T04:23:19.115Z,-2.00
2023-04-04T04:23:51.010Z,-2.00
2023-04-04T04:24:22.959Z,-2.00
2023-04-04T04:24:54.690Z,-2.00
2023-04-04T04:25:27.041Z,-2.00
2023-04-04T04:25:42.915Z,-2.00
2023-04-04T04:26:14.953Z,-2.00
2023-04-04T04:26:30.850Z,-2.00
2023-04-04T04:27:03.096Z,-2.00
2023-04-04T04:27:34.871Z,-2.00
2023-04-04T04:28:06.738Z,-2.00
2023-04-04T04:28:39.353Z,-2.00
2023-04-04T04:29:10.774Z,-2.00
2023-04-04T04:29:42.578Z,-2.00
2023-04-04T04:29:58.961Z,-2.00
2023-04-04T04:30:30.976Z,-2.00
2023-04-04T04:31:14.999Z,-2.00
2023-04-04T04:31:46.944Z,-2.11
2023-04-04T04:32:18.649Z,-2.11
2023-04-04T04:32:50.653Z,-2.11
2023-04-04T04:33:22.550Z,-2.11
2023-04-04T04:33:54.431Z,-2.11
2023-04-04T04:34:26.520Z,-2.11
2023-04-04T04:34:42.537Z,-2.11
2023-04-04T04:35:26.739Z,-2.11
2023-04-04T04:36:00.358Z,-2.11
2023-04-04T04:36:30.666Z,-2.11
2023-04-04T04:37:02.750Z,-2.11
2023-04-04T04:37:34.301Z,-2.11
2023-04-04T04:38:06.504Z,-2.11
2023-04-04T04:38:38.258Z,-2.11
2023-04-04T04:39:10.394Z,-2.11
2023-04-04T04:39:42.327Z,-2.11
2023-04-04T04:40:14.580Z,-2.11
2023-04-04T04:40:46.183Z,-2.11
2023-04-04T04:41:18.333Z,-2.11
2023-04-04T04:41:50.303Z,-2.11
2023-04-04T04:42:22.237Z,-2.11
2023-04-04T04:42:54.077Z,-2.11
2023-04-04T04:43:26.168Z,-2.11
2023-04-04T04:43:42.233Z,-2.11
2023-04-04T04:44:14.078Z,-2.11
2023-04-04T04:44:30.199Z,-2.11
2023-04-04T04:45:04.600Z,-2.11
2023-04-04T04:45:33.844Z,-2.11
2023-04-04T04:46:06.304Z,-2.11
2023-04-04T04:46:38.093Z,-2.11
2023-04-04T04:47:09.996Z,-2.22
2023-04-04T04:47:41.939Z,-2.22
2023-04-04T04:47:58.084Z,-2.22
2023-04-04T04:48:29.938Z,-2.22
2023-04-04T04:49:14.012Z,-2.22
2023-04-04T04:49:45.854Z,-2.22
2023-04-04T04:50:18.035Z,-2.22
2023-04-04T04:50:49.845Z,-2.27
2023-04-04T04:51:21.799Z,-2.27
2023-04-04T04:51:53.724Z,-2.27
2023-04-04T04:52:25.784Z,-2.27
2023-04-04T04:52:57.735Z,-2.27
2023-04-04T04:53:29.784Z,-2.27
2023-04-04T04:54:01.899Z,-2.38
2023-04-04T04:54:33.782Z,-2.38
2023-04-04T04:55:06.150Z,-2.38
2023-04-04T04:55:37.724Z,-2.38
2023-04-04T04:56:09.862Z,-2.38
2023-04-04T04:56:41.772Z,-2.50
2023-04-04T04:56:57.811Z,-2.50
2023-04-04T04:57:41.597Z,-2.50
2023-04-04T04:58:14.364Z,-2.50
2023-04-04T04:58:45.706Z,-2.50
2023-04-04T04:59:17.810Z,-2.50
2023-04-04T04:59:49.556Z,-2.61
2023-04-04T05:00:21.988Z,-2.61
2023-04-04T05:00:53.558Z,-2.61
2023-04-04T05:01:25.549Z,-2.61
2023-04-04T05:01:41.741Z,-2.61
2023-04-04T05:02:14.607Z,-2.72
2023-04-04T05:02:29.928Z,-2.72
2023-04-04T05:03:01.555Z,-2.72
2023-04-04T05:03:33.380Z,-2.72
2023-04-04T05:04:05.574Z,-2.72
2023-04-04T05:04:37.651Z,-2.72
2023-04-04T05:05:09.660Z,-2.72
2023-04-04T05:05:41.381Z,-2.72
2023-04-04T05:05:57.702Z,-2.72
2023-04-04T05:06:29.429Z,-2.72
2023-04-04T05:07:13.382Z,-2.72
2023-04-04T05:07:45.238Z,-2.72
2023-04-04T05:08:17.339Z,-2.72
2023-04-04T05:08:49.271Z,-2.72
2023-04-04T05:09:21.299Z,-2.72
2023-04-04T05:09:53.113Z,-2.72
2023-04-04T05:10:25.416Z,-2.72
2023-04-04T05:10:41.624Z,-2.72
2023-04-04T05:11:25.133Z,-2.72
2023-04-04T05:11:57.202Z,-2.72
2023-04-04T05:12:29.094Z,-2.72
2023-04-04T05:13:01.061Z,-2.77
2023-04-04T05:13:33.041Z,-2.77
2023-04-04T05:14:05.228Z,-2.72
2023-04-04T05:14:36.952Z,-2.72
2023-04-04T05:15:12.020Z,-2.72
2023-04-04T05:15:41.012Z,-2.72
2023-04-04T05:16:12.869Z,-2.72
2023-04-04T05:16:46.336Z,-2.72
2023-04-04T05:17:17.097Z,-2.72
2023-04-04T05:17:49.228Z,-2.72
2023-04-04T05:18:21.004Z,-2.72
2023-04-04T05:18:52.684Z,-2.72
2023-04-04T05:19:24.772Z,-2.72
2023-04-04T05:19:41.136Z,-2.72
2023-04-04T05:20:13.026Z,-2.72
2023-04-04T05:20:28.941Z,-2.72
2023-04-04T05:21:00.784Z,-2.72
2023-04-04T05:21:32.755Z,-2.61
2023-04-04T05:22:04.758Z,-2.61
2023-04-04T05:22:36.781Z,-2.50
2023-04-04T05:23:08.655Z,-2.50
2023-04-04T05:23:40.725Z,-2.38
2023-04-04T05:24:12.636Z,-2.38
2023-04-04T05:24:44.838Z,-2.27
2023-04-04T05:25:17.088Z,-2.22
2023-04-04T05:25:48.626Z,-2.00
2023-04-04T05:26:20.719Z,-2.00
2023-04-04T05:26:52.594Z,-1.88
2023-04-04T05:27:24.492Z,-1.77
2023-04-04T05:27:40.638Z,-1.72
2023-04-04T05:28:26.168Z,-1.61
2023-04-04T05:28:56.511Z,-1.61
2023-04-04T05:29:28.444Z,-1.61
2023-04-04T05:30:01.150Z,-1.72
2023-04-04T05:30:32.244Z,-1.72
2023-04-04T05:31:04.378Z,-1.77
2023-04-04T05:31:36.504Z,-1.77
2023-04-04T05:32:08.180Z,-1.77
2023-04-04T05:32:40.498Z,-1.77
2023-04-04T05:32:56.449Z,-1.77
2023-04-04T05:33:40.402Z,-1.72
2023-04-04T05:34:12.342Z,-1.72
2023-04-04T05:34:44.017Z,-1.72
2023-04-04T05:35:18.021Z,-1.72
2023-04-04T05:35:48.330Z,-1.72
2023-04-04T05:36:20.202Z,-1.72
2023-04-04T05:36:52.156Z,-1.72
2023-04-04T05:37:24.151Z,-1.72
2023-04-04T05:37:56.279Z,-1.72
2023-04-04T05:38:28.274Z,-1.61
2023-04-04T05:39:01.482Z,-1.61
2023-04-04T05:39:31.809Z,-1.61
2023-04-04T05:40:04.918Z,-1.61
2023-04-04T05:40:36.142Z,-1.61
2023-04-04T05:41:07.982Z,-1.61
2023-04-04T05:41:41.301Z,-1.61
2023-04-04T05:42:11.909Z,-1.61
2023-04-04T05:42:43.871Z,-1.50
2023-04-04T05:43:15.817Z,-1.50
2023-04-04T05:43:47.898Z,-1.50
2023-04-04T05:44:19.802Z,-1.50
2023-04-04T05:44:51.985Z,-1.50
2023-04-04T05:45:24.368Z,-1.50
2023-04-04T05:45:41.881Z,-1.50
2023-04-04T05:46:23.628Z,-1.50
2023-04-04T05:46:55.591Z,-1.50
2023-04-04T05:47:27.922Z,-1.50
2023-04-04T05:47:59.669Z,-1.50
2023-04-04T05:48:31.546Z,-1.38
2023-04-04T05:49:04.090Z,-1.38
2023-04-04T05:49:35.603Z,-1.27
2023-04-04T05:50:07.758Z,-1.22
2023-04-04T05:50:39.679Z,-.88
2023-04-04T05:50:55.844Z,-.88
2023-04-04T05:51:39.880Z,-.72
2023-04-04T05:52:11.572Z,-.50
2023-04-04T05:52:43.369Z,-.27
2023-04-04T05:53:15.524Z,-.22
2023-04-04T05:53:47.608Z,0
2023-04-04T05:54:19.793Z,.22
2023-04-04T05:54:51.484Z,.27
2023-04-04T05:55:23.534Z,.38
2023-04-04T05:55:39.841Z,.38
2023-04-04T05:56:11.240Z,.50
2023-04-04T05:56:27.610Z,.61
2023-04-04T05:56:59.385Z,.61
2023-04-04T05:57:34.282Z,.77
2023-04-04T05:58:06.216Z,.77
2023-04-04T05:58:35.261Z,.77
2023-04-04T05:59:07.266Z,.88
2023-04-04T05:59:39.440Z,.88
2023-04-04T05:59:55.335Z,1.00
2023-04-04T06:00:30.163Z,1.11
2023-04-04T06:01:11.286Z,1.27
2023-04-04T06:01:42.994Z,1.27
2023-04-04T06:02:15.047Z,1.27
2023-04-04T06:02:47.095Z,1.38
2023-04-04T06:03:21.875Z,1.38
2023-04-04T06:03:50.907Z,1.38
2023-04-04T06:04:22.857Z,1.38
2023-04-04T06:04:54.977Z,1.38
2023-04-04T06:05:29.341Z,1.38
2023-04-04T06:05:58.849Z,1.38
2023-04-04T06:06:32.979Z,1.50
2023-04-04T06:07:03.322Z,1.61
2023-04-04T06:07:34.827Z,1.61
2023-04-04T06:08:06.697Z,1.72
2023-04-04T06:08:52.388Z,1.72
2023-04-04T06:08:57.749Z,1.72
2023-04-04T06:09:39.273Z,1.88
2023-04-04T06:10:13.042Z,2.00
2023-04-04T06:10:42.617Z,2.00
2023-04-04T06:11:14.737Z,2.00
2023-04-04T06:11:46.677Z,2.00
2023-04-04T06:12:18.615Z,2.00
2023-04-04T06:12:50.411Z,2.00
2023-04-04T06:13:22.602Z,2.00
2023-04-04T06:13:39.113Z,2.00
2023-04-04T06:14:11.083Z,2.00
2023-04-04T06:14:26.904Z,2.00
2023-04-04T06:14:58.483Z,2.00
2023-04-04T06:15:30.857Z,2.00
2023-04-04T06:16:02.801Z,2.11
2023-04-04T06:16:34.457Z,2.11
2023-04-04T06:17:06.465Z,2.11
2023-04-04T06:17:38.395Z,2.11
2023-04-04T06:17:54.505Z,2.11
2023-04-04T06:18:26.300Z,2.11
2023-04-04T06:19:10.528Z,2.11
2023-04-04T06:19:42.185Z,2.22
2023-04-04T06:20:14.491Z,2.22
2023-04-04T06:20:46.334Z,2.22
2023-04-04T06:21:18.308Z,2.22
2023-04-04T06:21:50.104Z,2.27
2023-04-04T06:22:22.194Z,2.50
2023-04-04T06:22:54.288Z,2.72
2023-04-04T06:23:26.077Z,2.77
2023-04-04T06:24:00.214Z,2.88
2023-04-04T06:24:30.258Z,2.88
2023-04-04T06:25:02.718Z,2.88
2023-04-04T06:25:33.941Z,3.00
2023-04-04T06:26:06.155Z,3.00
2023-04-04T06:26:37.954Z,3.11
2023-04-04T06:27:10.144Z,3.11
2023-04-04T06:27:41.996Z,3.11
2023-04-04T06:28:13.840Z,3.22
2023-04-04T06:28:45.930Z,3.22
2023-04-04T06:29:18.161Z,3.22
2023-04-04T06:29:49.770Z,3.22
2023-04-04T06:30:24.471Z,3.22
2023-04-04T06:30:53.975Z,3.38
2023-04-04T06:31:25.778Z,3.50
2023-04-04T06:31:57.880Z,3.50
2023-04-04T06:32:29.841Z,3.50
2023-04-04T06:33:02.158Z,3.50
2023-04-04T06:33:33.647Z,3.50
2023-04-04T06:34:05.849Z,3.61
2023-04-04T06:34:37.917Z,3.61
2023-04-04T06:35:10.268Z,3.50
2023-04-04T06:35:41.465Z,3.50
2023-04-04T06:36:13.662Z,3.50
2023-04-04T06:36:45.676Z,3.50
2023-04-04T06:37:17.710Z,3.50
2023-04-04T06:37:49.645Z,3.61
2023-04-04T06:38:05.813Z,3.61
2023-04-04T06:38:37.590Z,3.61
2023-04-04T06:38:53.646Z,3.61
2023-04-04T06:39:27.507Z,3.72
2023-04-04T06:39:57.499Z,3.72
2023-04-04T06:40:30.974Z,3.72
2023-04-04T06:41:01.665Z,3.72
2023-04-04T06:41:33.440Z,3.72
2023-04-04T06:42:05.512Z,3.72
2023-04-04T06:42:37.625Z,3.72
2023-04-04T06:43:09.690Z,3.72
2023-04-04T06:43:41.396Z,3.72
2023-04-04T06:44:13.329Z,3.77
2023-04-04T06:44:45.397Z,3.88
2023-04-04T06:45:18.981Z,4.00
2023-04-04T06:45:49.385Z,4.11
2023-04-04T06:46:21.514Z,4.11
2023-04-04T06:46:37.659Z,4.11
2023-04-04T06:47:09.430Z,4.22
2023-04-04T06:47:25.487Z,4.22